Portada
METAR-TAF:

METAR-TAF

Aeroports :

Iwo Jima, Japó

latitud: 24-47N, longitud: 141-19E, altitud: 113 m

Observació

L'informe es va fer fa 15 minuts, a les 05:00 UTC
Vent 12 kt del Est
Temperatura 22°C
Humitat 60%
Pressió 1021 hPa
Visibilitat 10 km o més
Escasses núvols a una alçada de 3000 ft
Cel ennuvolat a una alçada de 5000 ft
Cel ennuvolat a una alçada de 15000 ft

METAR: RJAW 200500Z 09012KT 9999 FEW030 BKN050 BKN150 22/14 Q1021 RMK 2CU030 5SC050 7AC150 A3017

Hora: 14:15 (05:15 UTC)


TAF: manca

Observacions i pronòstics meteorològics de més de 4000 aeroports (METAR i TAF).

Les estacions disponibles són els punts grocs i vermells al mapa.

Posi el ratolí al punt desitjat per veure el nom de l'estació.

Feu clic per veure les observacions i els pronòstics meteorològics.

Per canviar el mapa: feu clic els botons verds amb una creu de color negre per apropar; al botó verd amb un guió per allunyar la imatge; o en les fletxes verdes per a mapes adjacents.


METAR-TAF: